Cleveland, OH (44145)

9:07 PM EST on February 08, 2016 (GMT -0500)
Settlers Reserve, Westlake | | Change Station
CLOSE
Current Station
Personal Weather Station
Location: Westlake, OH
Elevation: 709 ft
Nearby Weather Stations

Elev 709 ft 41.46 °N, 81.93 °W | Updated 3 seconds ago

Snow
Snow
33.8 °F
Feels Like 34 °F
N
0.0
Wind Variable Wind from SSW
Gusts 0.0 mph

Today
High -- | Low -- °F
--% Chance of Precip.
Yesterday
High -- | Low -- °F
Precip. -- in
Pressure 29.64 in
Visibility 3.0 miles
Clouds Few 600 ft
Overcast 3700 ft
Windchill 34 °F
Dew Point 31 °F
Humidity 90%
Rainfall 0.27 in
Snow Depth Not available.
7:32 AM 5:52 PM
New Moon, 0% visible
METAR KCLE 090151Z 21005KT 3SM -SN BR FEW006 OVC037 01/M01 A2962 RMK AO2 SLP037 P0000 T00061006
Pressure 29.64 in
Visibility 3.0 miles
Clouds Few 600 ft
Overcast 3700 ft
Windchill 34 °F
Dew Point 31 °F
Humidity 90%
Rainfall 0.27 in
Snow Depth Not available.
7:32 AM 5:52 PM
New Moon, 0% visible
METAR KCLE 090151Z 21005KT 3SM -SN BR FEW006 OVC037 01/M01 A2962 RMK AO2 SLP037 P0000 T00061006

10-Day Weather Forecast

Almanac

Astronomy

Feb. 08, 2016 Rise Set
Actual Time
Civil Twilight
Nautical Twilight
Astronomical Twilight
Moon
Length of Visible Light
Length of Day
Tomorrow will be .
, % of the Moon is Illuminated

Today's Extremes

State Highs State Lows

Community

WunderPhotos

Upload Photos

1,891,527 photos uploaded!

WunderBlog® & News

Nearby

Air Quality

  Air Quality AQ Index Pollutant
Not available.

Snow Depth

Station Depth Elevation

Earthquake Activity

City Distance Mag. Time & Date
Minimum magnitude displayed is 2.5.

Coastal Water Temperatures

Place Temperature

Stations

Nearby Weather Stations

Station Location Temp. Windchill Dew Point Humidity Wind Precip. Elev Updated Type
                   

Watches & Warnings

There are currently no watches in effect.